Scranton, KS

1:23 AM CDT on July 29, 2015 (GMT -0500)
Fly over Country | | Change Station
CLOSE
Current Station
Personal Weather Station
Location: Burlingame, KS
Elevation: 1063 ft
Nearby Weather Stations

Elev 1063 ft 38.74 °N, 95.78 °W | Updated 18 seconds ago

Overcast
Overcast
80.1 °F
Feels Like 85 °F
N
1.4
Wind Variable Wind from WSW
Gusts 2.0 mph

Today
High -- | Low -- °F
--% Chance of Precip.
Yesterday
High -- | Low -- °F
Precip. -- in
6:21 AM 8:36 PM
Waxing Gibbous, 94% visible
Pressure 29.93 in
Visibility 10.0 miles
Clouds Scattered Clouds 5500 ft
Overcast 8000 ft
Heat Index 85 °F
Dew Point 74 °F
Humidity 83%
Rainfall 0.00 in
Snow Depth Not available.
UV 0 out of 12
Pollen 6.20 out of 12
Air Quality Not available.
Flu Activity Not available.
METAR KFOE 290553Z AUTO 27005KT 10SM SCT055 OVC080 29/23 A2997 RMK AO2 SLP135 T02890233 10350 20289 403720250 51031

More Conditions Fewer Conditions

Pressure 29.93 in
Visibility 10.0 miles
Clouds Scattered Clouds 5500 ft
Overcast 8000 ft
Heat Index 85 °F
Dew Point 74 °F
Humidity 83%
Rainfall 0.00 in
Snow Depth Not available.
UV 0 out of 12
Pollen 6.20 out of 12
Air Quality Not available.
Flu Activity Not available.
METAR KFOE 290553Z AUTO 27005KT 10SM SCT055 OVC080 29/23 A2997 RMK AO2 SLP135 T02890233 10350 20289 403720250 51031

More Conditions Fewer Conditions

10-Day Weather Forecast

×

Almanac

Astronomy

Jul. 29, 2015 Rise Set
Actual Time
Civil Twilight
Nautical Twilight
Astronomical Twilight
Moon
Length of Visible Light
Length of Day
Tomorrow will be .
, % of the Moon is Illuminated

Today's Extremes

State Highs State Lows

Community

WunderPhotos

Upload Photos

1,842,061 photos uploaded!

WunderBlogs® & News

Nearby

Air Quality

  Air Quality AQ Index Pollutant
Not available.

Snow Depth

Station Depth Elevation

Earthquake Activity

City Distance Mag. Time & Date
Minimum magnitude displayed is 2.5.

Coastal Water Temperatures

Place Temperature

Stations

Nearby Weather Stations

Station Location Temp. Windchill Dew Point Humidity Wind Precip. Elev Updated Type